Enroute Instrument Rating: EIR(A)

Flugschule

Flugschule

Wir bieten eine professionelle und umfassende Ausbildung.

Flugwetter Augsburg

[Quelle: ADDS]
METAR
EDMA 250920Z 15004KT 120V180 CAVOK 09/04 Q1031 =
EDMA 250800Z 2509/2518 VRB03KT CAVOK
TAF
EDMA 250800Z 2509/2518 VRB03KT CAVOK =

Kontakt

Basic Instrument Rating - BIR (A)

- Text folgt -